Terminal Aerodrome Forecast
Issued by NWS Atlanta, GA

Home | Current Version | Previous Version | Text Only | Print | Product List | Glossary On
Versions: 1 2 3 4 5 6 7 8 9 10 11 12 13 14 15 16
783
FTUS42 KFFC 192320
TAFCSG
TAF
KCSG 192320Z 2000/2024 32005KT P6SM SCT050
     FM200100 00000KT P6SM SCT250
     FM201500 09005KT P6SM SCT045
     FM201800 09006KT P6SM FEW050=

USA.gov is the U.S. government's official web portal to all federal, state and local government web resources and services.